Time;durP1;ratioP1;P1;durP2;ratioP2;P2;SDS_P1;SDS_P2;PMS_P1;PMS_P2;Temp;Humidity;BMP_temperature;BMP_pressure;BME280_temperature;BME280_humidity;BME280_pressure;Samples;Min_cycle;Max_cycle;Signal;HPM_P1;HPM_P2
2022/12/05 00:01:24;;;;;;;22.63;13.93;;;1.20;99.90;;;;;;5071986;28;20073;-83
2022/12/05 00:03:50;;;;;;;;;;;1.30;99.90;;;;;;5076312;28;20048;-83
2022/12/05 00:06:17;;;;;;;20.50;13.63;;;1.40;99.90;;;;;;5081652;28;19908;-84
2022/12/05 00:08:43;;;;;;;21.60;12.93;;;1.40;99.90;;;;;;5072731;28;20024;-83
2022/12/05 00:11:18;;;;;;;20.17;13.40;;;1.50;99.90;;;;;;5073106;28;20513;-83
2022/12/05 00:13:44;;;;;;;23.13;14.95;;;1.40;99.90;;;;;;5071378;28;20081;-83
2022/12/05 00:16:14;;;;;;;20.73;13.52;;;1.10;99.90;;;;;;5072411;28;20568;-83
2022/12/05 00:18:40;;;;;;;21.63;13.73;;;1.20;99.90;;;;;;5072538;28;20024;-83
2022/12/05 00:21:10;;;;;;;21.77;14.63;;;1.20;99.90;;;;;;5072695;28;20031;-84
2022/12/05 00:23:36;;;;;;;19.25;11.85;;;1.20;99.90;;;;;;5072907;28;20040;-83
2022/12/05 00:26:03;;;;;;;23.20;14.63;;;1.20;99.90;;;;;;5072696;28;20514;-83
2022/12/05 00:28:33;;;;;;;21.20;13.82;;;1.30;99.90;;;;;;5059483;28;20039;-83
2022/12/05 00:31:07;;;;;;;22.25;14.52;;;1.40;99.90;;;;;;5071300;28;20029;-83
2022/12/05 00:33:33;;;;;;;21.35;15.32;;;1.50;99.90;;;;;;5072453;28;20343;-83
2022/12/05 00:36:04;;;;;;;21.33;13.80;;;1.50;99.90;;;;;;5086378;28;20620;-83
2022/12/05 00:38:30;;;;;;;21.15;13.13;;;1.60;99.90;;;;;;5081968;28;20116;-83
2022/12/05 00:41:00;;;;;;;21.52;13.90;;;1.60;99.90;;;;;;5072535;28;20116;-83
2022/12/05 00:43:26;;;;;;;18.33;12.10;;;1.40;99.90;;;;;;5071520;28;20161;-84
2022/12/05 00:45:52;;;;;;;18.92;13.50;;;1.30;99.90;;;;;;5071826;28;20080;-83
2022/12/05 00:48:17;;;;;;;22.08;13.95;;;1.20;99.90;;;;;;5064424;28;20028;-84
2022/12/05 00:50:43;;;;;;;18.50;13.27;;;1.20;99.90;;;;;;5069752;28;20119;-84
2022/12/05 00:53:10;;;;;;;19.70;12.93;;;1.20;99.90;;;;;;5070150;28;20021;-84
2022/12/05 00:55:36;;;;;;;21.17;13.60;;;1.00;99.90;;;;;;5071464;28;20016;-84
2022/12/05 00:58:02;;;;;;;20.33;13.25;;;1.00;99.90;;;;;;5071135;28;20048;-84
2022/12/05 01:00:28;;;;;;;21.05;13.13;;;1.10;99.90;;;;;;5070368;28;20067;-84
2022/12/05 01:02:54;;;;;;;20.02;12.38;;;1.10;99.90;;;;;;5071739;28;20436;-84
2022/12/05 01:05:20;;;;;;;26.52;14.65;;;1.00;99.90;;;;;;5088037;28;20106;-84
2022/12/05 01:07:46;;;;;;;22.67;14.32;;;0.60;99.90;;;;;;5091513;28;20107;-83
2022/12/05 01:10:11;;;;;;;23.27;15.48;;;0.50;99.90;;;;;;5091482;28;20032;-84
2022/12/05 01:12:37;;;;;;;19.38;13.02;;;0.80;99.90;;;;;;5091179;28;20099;-83
2022/12/05 01:15:03;;;;;;;20.65;13.55;;;0.70;99.90;;;;;;5071909;28;20451;-83
2022/12/05 01:17:29;;;;;;;24.27;15.07;;;0.70;99.90;;;;;;5070858;28;20032;-86
2022/12/05 01:19:54;;;;;;;23.80;14.70;;;0.40;99.90;;;;;;5071306;28;20025;-86
2022/12/05 01:22:20;;;;;;;22.25;14.00;;;0.40;99.90;;;;;;5069688;28;20107;-83
2022/12/05 01:24:46;;;;;;;23.25;14.63;;;0.50;99.90;;;;;;5070999;28;20839;-83
2022/12/05 01:27:11;;;;;;;22.40;12.75;;;0.50;99.90;;;;;;5070668;28;20053;-82
2022/12/05 01:29:37;;;;;;;20.30;13.38;;;0.60;99.90;;;;;;5071340;28;20169;-82
2022/12/05 01:32:03;;;;;;;19.90;13.40;;;0.50;99.90;;;;;;5069249;28;20526;-82
2022/12/05 01:34:29;;;;;;;19.75;13.05;;;0.60;99.90;;;;;;5070105;28;20606;-82
2022/12/05 01:36:54;;;;;;;21.80;14.70;;;0.70;99.90;;;;;;5070638;28;20111;-82
2022/12/05 01:39:21;;;;;;;23.73;14.50;;;0.60;99.90;;;;;;5071166;28;20032;-82
2022/12/05 01:41:49;;;;;;;17.55;12.30;;;0.60;99.90;;;;;;5073190;28;20017;-82
2022/12/05 01:44:15;;;;;;;19.30;13.00;;;0.60;99.90;;;;;;5074004;28;20029;-82
2022/12/05 01:46:47;;;;;;;22.17;13.32;;;0.60;99.90;;;;;;5071006;28;20401;-82
2022/12/05 01:49:21;;;;;;;21.25;12.45;;;0.60;99.90;;;;;;5069490;28;20017;-82
2022/12/05 01:51:54;;;;;;;20.52;12.93;;;0.30;99.90;;;;;;5070769;28;20021;-81
2022/12/05 01:54:21;;;;;;;18.77;12.68;;;0.50;99.90;;;;;;5069191;28;20106;-81
2022/12/05 01:56:51;;;;;;;18.88;12.40;;;0.50;99.90;;;;;;5084415;28;20020;-81
2022/12/05 01:59:19;;;;;;;18.80;12.25;;;0.60;99.90;;;;;;5055941;28;20490;-81
2022/12/05 02:01:45;;;;;;;19.67;11.98;;;0.40;99.90;;;;;;5070150;28;20028;-83
2022/12/05 02:04:11;;;;;;;19.13;11.70;;;0.40;99.90;;;;;;5070205;28;20029;-81
2022/12/05 02:06:37;;;;;;;20.48;13.02;;;0.30;99.90;;;;;;5070918;28;20028;-81
2022/12/05 02:09:02;;;;;;;19.52;13.20;;;0.20;99.90;;;;;;5069731;28;20456;-80
2022/12/05 02:11:31;;;;;;;19.52;12.77;;;0.40;99.90;;;;;;5083802;28;20020;-83
2022/12/05 02:14:03;;;;;;;17.80;11.75;;;0.30;99.90;;;;;;5079678;28;20082;-80
2022/12/05 02:17:00;;;;;;;19.85;11.80;;;0.40;99.90;;;;;;5083426;28;20020;-80
2022/12/05 02:19:51;;;;;;;18.50;12.55;;;0.50;99.90;;;;;;5078582;28;20025;-80
2022/12/05 02:22:53;;;;;;;18.93;11.93;;;0.40;99.90;;;;;;5058941;28;20095;-80
2022/12/05 02:25:49;;;;;;;19.40;12.63;;;0.40;99.90;;;;;;5070141;28;20346;-80
2022/12/05 02:28:46;;;;;;;17.90;11.18;;;0.30;99.90;;;;;;5068526;28;20116;-80
2022/12/05 02:31:21;;;;;;;18.25;12.23;;;0.20;99.90;;;;;;5070338;28;20021;-81
2022/12/05 02:33:58;;;;;;;18.05;12.13;;;0.10;99.90;;;;;;5069484;28;20560;-80
2022/12/05 02:36:35;;;;;;;19.02;11.52;;;0.10;99.90;;;;;;5070830;28;20096;-80
2022/12/05 02:39:27;;;;;;;18.38;12.02;;;0.00;99.90;;;;;;5070298;28;20046;-80
2022/12/05 02:42:04;;;;;;;20.27;11.60;;;0.10;99.90;;;;;;5063245;28;21095;-80
2022/12/05 02:44:45;;;;;;;15.70;9.70;;;0.20;99.90;;;;;;5072324;28;20052;-80
2022/12/05 02:47:15;;;;;;;19.58;11.77;;;0.20;99.90;;;;;;5069950;28;20024;-80
2022/12/05 02:49:42;;;;;;;17.42;11.90;;;0.20;99.90;;;;;;5070405;28;20040;-80
2022/12/05 02:52:12;;;;;;;16.70;10.85;;;0.20;99.90;;;;;;5069823;28;20036;-80
2022/12/05 02:54:43;;;;;;;17.55;10.93;;;0.20;99.90;;;;;;5069635;28;20021;-80
2022/12/05 02:57:10;;;;;;;17.20;11.57;;;0.30;99.90;;;;;;5069645;28;20017;-80
2022/12/05 02:59:36;;;;;;;15.23;10.35;;;0.20;99.90;;;;;;5070262;28;20063;-80
2022/12/05 03:02:02;;;;;;;17.25;10.13;;;0.20;99.90;;;;;;5084980;28;20500;-81
2022/12/05 03:04:30;;;;;;;14.80;9.85;;;0.20;99.90;;;;;;5090285;28;20142;-81
2022/12/05 03:07:16;;;;;;;14.85;9.70;;;0.10;99.90;;;;;;5073819;28;20040;-81
2022/12/05 03:09:48;;;;;;;15.23;11.15;;;0.10;99.90;;;;;;5070349;28;20075;-81
2022/12/05 03:12:24;;;;;;;16.70;11.48;;;0.10;99.90;;;;;;5057021;28;20024;-81
2022/12/05 03:14:53;;;;;;;16.60;11.20;;;0.00;99.90;;;;;;5070019;28;20407;-81
2022/12/05 03:17:23;;;;;;;18.25;11.05;;;0.00;99.90;;;;;;5069778;28;20028;-84
2022/12/05 03:20:19;;;;;;;15.32;10.00;;;0.00;99.90;;;;;;5070373;28;20025;-83
2022/12/05 03:22:52;;;;;;;15.18;10.52;;;0.00;99.90;;;;;;5067275;28;20025;-84
2022/12/05 03:25:22;;;;;;;16.75;10.77;;;0.10;99.90;;;;;;5057422;28;20074;-81
2022/12/05 03:27:54;;;;;;;14.52;10.10;;;0.00;99.90;;;;;;5070696;28;20028;-81
2022/12/05 03:30:22;;;;;;;15.55;10.50;;;0.00;99.90;;;;;;5073678;28;20032;-82
2022/12/05 03:33:02;;;;;;;15.52;10.50;;;0.00;99.90;;;;;;5073682;28;20017;-82
2022/12/05 03:35:43;;;;;;;15.95;10.77;;;0.00;99.90;;;;;;5070645;28;20502;-82
2022/12/05 03:38:21;;;;;;;15.57;10.13;;;-0.10;99.90;;;;;;5073012;28;20035;-83
2022/12/05 03:40:55;;;;;;;14.75;10.25;;;-0.10;99.90;;;;;;5071648;28;20125;-82
2022/12/05 03:43:24;;;;;;;17.23;11.25;;;-0.10;99.90;;;;;;5072488;28;20036;-82
2022/12/05 03:46:10;;;;;;;14.40;9.57;;;-0.10;99.90;;;;;;5071694;28;20020;-82
2022/12/05 03:48:54;;;;;;;14.48;10.38;;;-0.20;99.90;;;;;;5088486;28;20025;-82
2022/12/05 03:51:24;;;;;;;16.00;10.25;;;-0.30;99.90;;;;;;5061779;28;20024;-82
2022/12/05 03:53:57;;;;;;;14.68;10.10;;;-0.10;99.90;;;;;;5074610;28;20052;-83
2022/12/05 03:56:45;;;;;;;14.77;9.77;;;-0.10;99.90;;;;;;5071920;28;20512;-82
2022/12/05 03:59:42;;;;;;;16.38;10.38;;;-0.10;99.90;;;;;;5078555;28;20516;-82
2022/12/05 04:02:17;;;;;;;15.15;10.60;;;-0.10;99.90;;;;;;5091300;28;20574;-82
2022/12/05 04:05:06;;;;;;;14.20;9.77;;;0.00;99.90;;;;;;5091437;28;20561;-82
2022/12/05 04:07:36;;;;;;;15.88;10.88;;;0.00;99.90;;;;;;5068030;28;20032;-83
2022/12/05 04:10:11;;;;;;;16.13;10.27;;;-0.20;99.90;;;;;;5083905;28;20127;-82
2022/12/05 04:12:42;;;;;;;14.50;10.07;;;-0.20;99.90;;;;;;5090854;28;20020;-84
2022/12/05 04:15:17;;;;;;;18.13;10.73;;;0.00;99.90;;;;;;5073689;28;20024;-84
2022/12/05 04:17:56;;;;;;;16.02;9.98;;;0.10;99.90;;;;;;5072755;28;20025;-84
2022/12/05 04:23:31;;;;;;;17.45;11.20;;;-0.30;99.90;;;;;;5072060;28;20101;-83
2022/12/05 04:26:19;;;;;;;17.85;11.73;;;-0.20;99.90;;;;;;5071985;28;20539;-83
2022/12/05 04:28:55;;;;;;;16.17;10.70;;;0.00;99.90;;;;;;5071859;28;20063;-83
2022/12/05 04:31:26;;;;;;;15.95;10.70;;;0.10;99.90;;;;;;5075418;28;20505;-83
2022/12/05 04:34:13;;;;;;;14.48;9.93;;;0.10;99.90;;;;;;5090886;28;20533;-82
2022/12/05 04:36:41;;;;;;;16.23;10.23;;;0.20;99.90;;;;;;5092019;28;20036;-83
2022/12/05 04:39:15;;;;;;;17.25;10.30;;;0.20;99.90;;;;;;5090254;28;20050;-83
2022/12/05 04:41:54;;;;;;;15.30;10.45;;;0.10;99.90;;;;;;5090675;28;20024;-83
2022/12/05 04:44:27;;;;;;;15.40;10.35;;;0.10;99.90;;;;;;5072308;28;20055;-83
2022/12/05 04:46:57;;;;;;;14.52;9.45;;;0.00;99.90;;;;;;5071805;28;20150;-83
2022/12/05 04:49:26;;;;;;;15.80;10.45;;;0.00;99.90;;;;;;5070631;28;20025;-82
2022/12/05 04:51:58;;;;;;;13.93;8.85;;;0.10;99.90;;;;;;5086760;28;20063;-83
2022/12/05 04:54:31;;;;;;;12.73;8.98;;;0.10;99.90;;;;;;5086920;28;20023;-83
2022/12/05 04:57:19;;;;;;;15.07;9.48;;;0.20;99.90;;;;;;5071952;28;20574;-83
2022/12/05 04:59:46;;;;;;;14.20;9.27;;;0.10;99.90;;;;;;5071730;28;20117;-82
2022/12/05 05:02:17;;;;;;;14.75;9.68;;;0.00;99.90;;;;;;5072077;28;20032;-82
2022/12/05 05:04:45;;;;;;;;;;;0.00;99.90;;;;;;5072248;28;20035;-82
2022/12/05 05:07:12;;;;;;;16.00;9.88;;;0.00;99.90;;;;;;5071526;28;20400;-82
2022/12/05 05:09:39;;;;;;;13.48;9.32;;;0.10;99.90;;;;;;5071781;28;20036;-82
2022/12/05 05:12:05;;;;;;;12.98;8.80;;;0.10;99.90;;;;;;5070905;28;20090;-82
2022/12/05 05:14:31;;;;;;;15.20;9.45;;;0.10;99.90;;;;;;5082619;28;20024;-82
2022/12/05 05:16:57;;;;;;;14.65;9.18;;;0.00;99.90;;;;;;5070943;28;20566;-82
2022/12/05 05:19:23;;;;;;;12.13;8.30;;;0.10;99.90;;;;;;5071061;28;20029;-82
2022/12/05 05:21:50;;;;;;;13.65;9.85;;;0.10;99.90;;;;;;5070862;28;20038;-82
2022/12/05 05:24:15;;;;;;;11.90;8.13;;;0.10;99.90;;;;;;5086440;28;20097;-82
2022/12/05 05:26:43;;;;;;;12.30;8.57;;;0.00;99.90;;;;;;5070653;28;20576;-82
2022/12/05 05:29:10;;;;;;;11.60;8.18;;;-0.10;99.90;;;;;;5086427;28;20036;-82
2022/12/05 05:31:37;;;;;;;11.35;8.65;;;0.00;99.90;;;;;;5086429;28;20029;-82
2022/12/05 05:34:03;;;;;;;12.40;8.43;;;0.00;99.90;;;;;;5070796;28;20114;-82
2022/12/05 05:36:29;;;;;;;14.02;9.30;;;-0.10;99.90;;;;;;5071093;28;20071;-82
2022/12/05 05:38:58;;;;;;;13.10;9.43;;;-0.20;99.90;;;;;;5070167;28;20543;-82
2022/12/05 05:41:27;;;;;;;14.23;9.27;;;-0.20;99.90;;;;;;5069229;28;20032;-81
2022/12/05 05:43:53;;;;;;;12.63;9.38;;;-0.20;99.90;;;;;;5070408;28;20081;-81
2022/12/05 05:46:23;;;;;;;12.60;8.93;;;-0.20;99.90;;;;;;5070275;28;20032;-81
2022/12/05 05:48:49;;;;;;;13.80;9.27;;;-0.10;99.90;;;;;;5070724;28;20024;-81
2022/12/05 05:51:16;;;;;;;13.98;9.77;;;-0.20;99.90;;;;;;5069994;28;20021;-82
2022/12/05 05:53:42;;;;;;;14.23;10.23;;;-0.20;99.90;;;;;;5070743;28;20031;-81
2022/12/05 05:56:11;;;;;;;12.73;8.85;;;-0.10;99.90;;;;;;5070994;28;20130;-82
2022/12/05 05:58:37;;;;;;;13.15;9.30;;;0.00;99.90;;;;;;5070197;28;20042;-82
2022/12/05 06:01:08;;;;;;;12.35;8.73;;;0.00;99.90;;;;;;5086289;28;20024;-82
2022/12/05 06:03:34;;;;;;;12.60;8.85;;;-0.20;99.90;;;;;;5070550;28;20069;-82
2022/12/05 06:06:03;;;;;;;13.35;9.45;;;-0.20;99.90;;;;;;5070479;28;20039;-82
2022/12/05 06:08:34;;;;;;;12.52;8.95;;;-0.10;99.90;;;;;;5069888;28;20035;-82
2022/12/05 06:11:03;;;;;;;;;;;-0.20;99.90;;;;;;5086469;28;20017;-82
2022/12/05 06:13:29;;;;;;;12.45;7.85;;;-0.20;99.90;;;;;;5072035;28;19958;-82
2022/12/05 06:15:55;;;;;;;11.55;8.00;;;-0.20;99.90;;;;;;5090031;28;20024;-82
2022/12/05 06:18:20;;;;;;;12.35;8.27;;;-0.20;99.90;;;;;;5090598;28;20046;-82
2022/12/05 06:20:54;;;;;;;13.55;8.70;;;-0.20;99.90;;;;;;5080071;28;20032;-82
2022/12/05 06:23:20;;;;;;;12.13;8.48;;;-0.10;99.90;;;;;;5069926;28;20023;-83
2022/12/05 06:25:51;;;;;;;11.27;8.38;;;-0.10;99.90;;;;;;5068888;28;20426;-83
2022/12/05 06:28:18;;;;;;;11.32;8.07;;;-0.20;99.90;;;;;;5070951;28;20032;-82
2022/12/05 06:30:44;;;;;;;11.70;7.93;;;-0.20;99.90;;;;;;5070308;28;20035;-83
2022/12/05 06:33:09;;;;;;;12.25;8.48;;;-0.20;99.90;;;;;;5070696;28;20240;-82
2022/12/05 06:35:35;;;;;;;12.82;8.35;;;-0.10;99.90;;;;;;5070696;28;20035;-82
2022/12/05 06:38:01;;;;;;;14.52;9.38;;;-0.10;99.90;;;;;;5068957;28;20513;-82
2022/12/05 06:40:27;;;;;;;12.85;8.88;;;-0.10;99.90;;;;;;5070616;28;20029;-82
2022/12/05 06:42:52;;;;;;;13.63;9.20;;;-0.20;99.90;;;;;;5075731;28;20513;-82
2022/12/05 06:45:19;;;;;;;12.95;8.52;;;-0.20;99.90;;;;;;5070523;28;20039;-83
2022/12/05 06:47:45;;;;;;;13.43;8.75;;;-0.30;99.90;;;;;;5070753;28;20027;-82
2022/12/05 06:50:11;;;;;;;12.30;8.45;;;-0.30;99.90;;;;;;5070409;28;20036;-82
2022/12/05 06:52:36;;;;;;;14.88;10.02;;;-0.40;99.90;;;;;;5068623;28;20023;-82
2022/12/05 06:55:02;;;;;;;13.38;8.85;;;-0.50;99.90;;;;;;5070355;28;20058;-83
2022/12/05 06:57:28;;;;;;;15.55;9.88;;;-0.40;99.90;;;;;;5069989;28;20064;-82
2022/12/05 07:01:37;;;;;;;13.77;9.63;;;-0.30;99.90;;;;;;5070471;28;20082;-84
2022/12/05 07:02:40;;;;;;;13.15;9.32;;;-0.40;99.90;;;;;;5058689;28;20085;-84
2022/12/05 07:05:07;;;;;;;14.73;9.52;;;-0.30;99.90;;;;;;5074274;28;20020;-85
2022/12/05 07:07:33;;;;;;;17.50;10.10;;;-0.20;99.90;;;;;;5074048;28;20024;-85
2022/12/05 07:09:58;;;;;;;19.80;11.77;;;-0.30;99.90;;;;;;5073925;28;20539;-84
2022/12/05 07:12:24;;;;;;;21.30;12.65;;;-0.40;99.90;;;;;;5073997;28;20516;-85
2022/12/05 07:14:50;;;;;;;22.92;12.10;;;-0.30;99.90;;;;;;5072371;28;20459;-84
2022/12/05 07:17:20;;;;;;;19.05;11.77;;;-0.30;99.90;;;;;;5074174;28;20546;-85
2022/12/05 07:19:49;;;;;;;21.48;12.98;;;-0.40;99.90;;;;;;5073908;28;20029;-84
2022/12/05 07:22:17;;;;;;;24.00;13.10;;;-0.30;99.90;;;;;;5072566;28;20115;-85
2022/12/05 07:24:44;;;;;;;23.90;13.90;;;-0.30;99.90;;;;;;5073471;28;20025;-84
2022/12/05 07:27:10;;;;;;;20.08;12.63;;;-0.30;99.90;;;;;;5073740;28;20043;-85
2022/12/05 07:29:36;;;;;;;21.27;12.10;;;-0.30;99.90;;;;;;5072136;28;20024;-84
2022/12/05 07:32:01;;;;;;;19.90;11.95;;;-0.30;99.90;;;;;;5073694;28;20500;-84
2022/12/05 07:34:27;;;;;;;22.25;12.70;;;-0.30;99.90;;;;;;5073704;28;20438;-84
2022/12/05 07:36:53;;;;;;;22.20;13.02;;;-0.20;99.90;;;;;;5079564;28;20029;-85
2022/12/05 07:39:19;;;;;;;21.90;12.90;;;-0.30;99.90;;;;;;5083243;28;20493;-85
2022/12/05 07:41:44;;;;;;;23.38;12.75;;;-0.10;99.90;;;;;;5073548;28;20559;-85
2022/12/05 07:44:11;;;;;;;23.13;12.48;;;0.00;99.90;;;;;;5075923;28;20071;-85
2022/12/05 07:46:37;;;;;;;23.25;13.32;;;0.00;99.90;;;;;;5073297;28;20030;-85
2022/12/05 07:49:03;;;;;;;19.05;11.75;;;-0.10;99.90;;;;;;5071621;28;20067;-84
2022/12/05 07:51:29;;;;;;;21.83;12.60;;;-0.10;99.90;;;;;;5073299;28;20056;-84
2022/12/05 07:53:57;;;;;;;18.73;11.77;;;-0.10;99.90;;;;;;5072717;28;20504;-86
2022/12/05 07:56:22;;;;;;;17.58;10.77;;;-0.10;99.90;;;;;;5068347;28;20055;-85
2022/12/05 07:58:49;;;;;;;18.38;11.23;;;-0.10;99.90;;;;;;5072073;28;20064;-87
2022/12/05 08:01:17;;;;;;;19.70;11.70;;;0.00;99.90;;;;;;5088003;28;20078;-87
2022/12/05 08:03:43;;;;;;;17.02;10.75;;;0.10;99.90;;;;;;5072461;28;20028;-87
2022/12/05 08:06:12;;;;;;;17.42;11.25;;;0.20;99.90;;;;;;5077153;28;20021;-86
2022/12/05 08:08:38;;;;;;;17.98;10.93;;;0.20;99.90;;;;;;5070847;28;20036;-86
2022/12/05 08:11:13;;;;;;;17.77;11.40;;;0.20;99.90;;;;;;5077533;28;20115;-87
2022/12/05 08:13:39;;;;;;;15.80;9.95;;;0.10;99.90;;;;;;5076356;28;20020;-86
2022/12/05 08:16:11;;;;;;;18.75;11.30;;;0.20;99.90;;;;;;5074407;28;20032;-85
2022/12/05 08:18:37;;;;;;;17.60;11.85;;;0.40;99.90;;;;;;5070571;28;20028;-86
2022/12/05 08:21:12;;;;;;;18.77;11.75;;;0.50;99.90;;;;;;5072676;28;20521;-87
2022/12/05 08:23:38;;;;;;;19.33;12.23;;;0.60;99.90;;;;;;5057969;28;20033;-87
2022/12/05 08:26:08;;;;;;;17.60;11.23;;;0.60;99.90;;;;;;5069911;28;20055;-84
2022/12/05 08:28:34;;;;;;;17.00;11.25;;;0.60;99.90;;;;;;5070252;28;20135;-84
2022/12/05 08:31:11;;;;;;;20.52;12.10;;;0.70;99.90;;;;;;5072465;28;20097;-85
2022/12/05 08:33:38;;;;;;;17.73;11.50;;;0.50;99.90;;;;;;5072032;28;20029;-84
2022/12/05 08:36:06;;;;;;;18.10;11.90;;;0.70;99.90;;;;;;5071181;28;20032;-84
2022/12/05 08:38:32;;;;;;;20.73;11.75;;;0.80;99.90;;;;;;5067102;28;20107;-85
2022/12/05 08:41:03;;;;;;;17.30;11.15;;;1.10;99.90;;;;;;5071849;28;20043;-83
2022/12/05 08:43:29;;;;;;;16.77;11.55;;;1.40;99.90;;;;;;5069422;28;20035;-83
2022/12/05 08:45:55;;;;;;;18.70;11.48;;;1.40;99.90;;;;;;5070897;28;20032;-84
2022/12/05 08:48:22;;;;;;;17.33;11.05;;;2.80;99.90;;;;;;5070653;28;20043;-83
2022/12/05 08:50:48;;;;;;;16.13;10.70;;;3.70;99.90;;;;;;5073698;28;20036;-83
2022/12/05 08:53:15;;;;;;;16.80;11.02;;;4.70;99.90;;;;;;5070698;28;20021;-83
2022/12/05 08:55:40;;;;;;;17.33;10.63;;;4.40;99.90;;;;;;5070895;28;20111;-81
2022/12/05 08:58:06;;;;;;;16.02;9.93;;;4.10;99.90;;;;;;5071152;28;20635;-81
2022/12/05 09:00:32;;;;;;;16.48;10.20;;;5.90;99.90;;;;;;5083130;28;20025;-83
2022/12/05 09:02:58;;;;;;;18.08;10.75;;;9.30;99.90;;;;;;5071114;28;20024;-84
2022/12/05 09:05:24;;;;;;;16.00;10.30;;;11.50;97.30;;;;;;5069738;28;20520;-86
2022/12/05 09:07:50;;;;;;;16.77;10.77;;;11.60;94.90;;;;;;5070612;28;20087;-87
2022/12/05 09:10:16;;;;;;;16.63;10.55;;;10.60;96.10;;;;;;5069194;28;20484;-88
2022/12/05 09:12:42;;;;;;;15.68;10.07;;;7.60;99.90;;;;;;5069836;28;20099;-89
2022/12/05 09:15:10;;;;;;;20.05;10.80;;;5.70;99.90;;;;;;5072142;28;20032;-88
2022/12/05 09:17:37;;;;;;;15.60;10.45;;;5.00;99.90;;;;;;5070698;28;20108;-86
2022/12/05 09:20:04;;;;;;;14.23;9.68;;;4.70;99.90;;;;;;5069542;28;20210;-86
2022/12/05 09:22:29;;;;;;;16.23;10.82;;;4.20;99.90;;;;;;5066861;28;20078;-87
2022/12/05 09:24:55;;;;;;;13.02;9.25;;;4.10;99.90;;;;;;5068926;28;20481;-83
2022/12/05 09:27:21;;;;;;;14.15;9.85;;;4.10;99.90;;;;;;5064060;28;20134;-85
2022/12/05 09:29:46;;;;;;;14.70;10.38;;;3.80;99.90;;;;;;5069541;28;20025;-86
2022/12/05 09:32:12;;;;;;;15.93;10.50;;;3.90;99.90;;;;;;5079234;28;20549;-86
2022/12/05 09:34:38;;;;;;;14.65;9.60;;;3.60;99.90;;;;;;5089951;28;20592;-86
2022/12/05 09:37:05;;;;;;;15.80;10.38;;;3.80;99.90;;;;;;5071354;28;20513;-86
2022/12/05 09:39:30;;;;;;;17.25;9.82;;;4.00;99.90;;;;;;5080859;28;20031;-86
2022/12/05 09:42:17;;;;;;;15.70;10.30;;;3.80;99.90;;;;;;5077775;28;20016;-87
2022/12/05 09:44:55;;;;;;;15.13;9.43;;;3.70;99.90;;;;;;5067834;28;20063;-87
2022/12/05 09:47:23;;;;;;;12.70;9.70;;;3.90;99.90;;;;;;5061597;28;20029;-86
2022/12/05 09:50:13;;;;;;;13.13;9.35;;;3.90;99.90;;;;;;5068234;28;20032;-87
2022/12/05 09:52:43;;;;;;;15.82;9.95;;;4.10;99.90;;;;;;5055065;28;20048;-85
2022/12/05 09:55:16;;;;;;;11.93;8.77;;;4.20;99.90;;;;;;5069526;28;20036;-87
2022/12/05 09:57:48;;;;;;;15.73;10.57;;;4.20;99.90;;;;;;5055264;28;20520;-85
2022/12/05 10:00:15;;;;;;;13.88;9.23;;;4.20;99.90;;;;;;5067544;28;20035;-85
2022/12/05 10:02:51;;;;;;;15.45;10.80;;;4.10;99.90;;;;;;5068889;28;20028;-85
2022/12/05 10:05:39;;;;;;;17.05;11.30;;;4.10;99.90;;;;;;5069243;28;20051;-84
2022/12/05 10:08:23;;;;;;;17.17;11.35;;;4.00;99.90;;;;;;5068924;28;20176;-83
2022/12/05 10:11:29;;;;;;;14.43;10.10;;;4.20;99.90;;;;;;5067699;28;20064;-83
2022/12/05 10:14:17;;;;;;;15.57;11.10;;;4.20;99.90;;;;;;5056898;28;20052;-84
2022/12/05 10:16:54;;;;;;;19.08;11.50;;;4.20;99.90;;;;;;5067576;28;20017;-84
2022/12/05 10:19:38;;;;;;;18.88;12.05;;;4.20;99.90;;;;;;5068840;28;20025;-83
2022/12/05 10:22:12;;;;;;;17.60;11.82;;;4.20;99.90;;;;;;5068970;28;20242;-84
2022/12/05 10:24:45;;;;;;;19.23;11.93;;;4.30;99.90;;;;;;5067109;28;20099;-85
2022/12/05 10:27:20;;;;;;;18.23;11.50;;;4.40;99.90;;;;;;5070393;28;20076;-86
2022/12/05 10:30:17;;;;;;;14.80;10.68;;;4.50;99.90;;;;;;5066334;28;20046;-85
2022/12/05 10:32:53;;;;;;;17.05;10.80;;;4.50;99.90;;;;;;5047006;28;20064;-86
2022/12/05 10:35:20;;;;;;;17.50;11.15;;;4.60;99.90;;;;;;5069265;28;20493;-86
2022/12/05 10:37:53;;;;;;;17.08;10.75;;;4.70;99.90;;;;;;5069214;28;20028;-87
2022/12/05 10:40:20;;;;;;;15.93;11.55;;;4.70;99.90;;;;;;5072591;28;20029;-86
2022/12/05 10:42:47;;;;;;;17.50;10.95;;;4.70;99.90;;;;;;5073058;28;20012;-87
2022/12/05 10:45:23;;;;;;;16.15;11.43;;;4.80;99.90;;;;;;5073834;28;20024;-86
2022/12/05 10:47:54;;;;;;;15.40;10.65;;;5.10;99.90;;;;;;5073350;28;20035;-86
2022/12/05 10:50:41;;;;;;;14.13;10.25;;;5.20;99.90;;;;;;5084169;28;20016;-87
2022/12/05 10:53:12;;;;;;;17.02;10.40;;;5.20;99.90;;;;;;5062078;28;20066;-87
2022/12/05 10:55:44;;;;;;;14.95;11.05;;;5.20;99.90;;;;;;5072983;28;20070;-87
2022/12/05 10:58:12;;;;;;;14.55;10.23;;;5.20;99.90;;;;;;5072920;28;20028;-88
2022/12/05 11:00:45;;;;;;;14.00;9.93;;;5.20;99.90;;;;;;5071181;28;20057;-88
2022/12/05 11:03:23;;;;;;;18.10;10.65;;;5.30;99.90;;;;;;5084819;28;20024;-87
2022/12/05 11:05:50;;;;;;;15.95;10.43;;;5.40;99.90;;;;;;5085439;28;20025;-87
2022/12/05 11:08:28;;;;;;;15.02;9.77;;;5.80;99.90;;;;;;5072765;28;20033;-89
2022/12/05 11:11:03;;;;;;;15.25;9.43;;;5.70;99.90;;;;;;5072652;28;20024;-91
2022/12/05 11:13:29;;;;;;;14.15;9.68;;;5.80;99.90;;;;;;5075224;28;20028;-92
2022/12/05 11:15:54;;;;;;;12.95;9.20;;;6.00;99.90;;;;;;5088463;28;20031;-92
2022/12/05 11:18:33;;;;;;;12.70;8.73;;;6.30;99.90;;;;;;5077208;28;20106;-92
2022/12/05 11:21:13;;;;;;;11.95;8.35;;;6.30;99.90;;;;;;5077935;28;20033;-91
2022/12/05 11:23:39;;;;;;;10.52;7.57;;;6.20;99.90;;;;;;5071765;28;20128;-90
2022/12/05 11:26:18;;;;;;;12.23;7.90;;;6.50;99.90;;;;;;5071052;28;20056;-91
2022/12/05 11:28:44;;;;;;;10.75;7.05;;;6.60;99.90;;;;;;5073289;28;20091;-89
2022/12/05 11:31:15;;;;;;;11.63;7.15;;;6.50;99.90;;;;;;5072878;28;20409;-89
2022/12/05 11:33:41;;;;;;;11.18;7.03;;;6.50;99.90;;;;;;5073347;28;20091;-90
2022/12/05 11:36:19;;;;;;;8.88;6.35;;;6.70;99.90;;;;;;5084022;28;20119;-90
2022/12/05 11:38:45;;;;;;;7.55;5.82;;;6.80;99.90;;;;;;5071302;28;20560;-89
2022/12/05 11:41:33;;;;;;;9.50;6.60;;;6.90;99.90;;;;;;5071947;28;20555;-90
2022/12/05 11:44:10;;;;;;;8.27;5.55;;;7.20;99.90;;;;;;5066490;28;20131;-90
2022/12/05 11:46:48;;;;;;;11.18;5.90;;;7.00;99.90;;;;;;5071609;28;20111;-91
2022/12/05 11:49:33;;;;;;;7.95;5.55;;;7.30;99.90;;;;;;5069995;28;20028;-89
2022/12/05 11:52:30;;;;;;;8.90;5.68;;;7.20;99.90;;;;;;5072752;28;20044;-90
2022/12/05 11:55:16;;;;;;;8.57;5.43;;;7.20;99.90;;;;;;5072815;28;20035;-91
2022/12/05 11:58:10;;;;;;;7.63;4.78;;;7.40;99.90;;;;;;5070121;28;20032;-90
2022/12/05 12:00:39;;;;;;;9.25;5.43;;;7.60;99.90;;;;;;4993266;28;20121;-89
2022/12/05 12:03:16;;;;;;;10.88;5.05;;;8.10;99.90;;;;;;4999490;28;20520;-91
2022/12/05 12:06:13;;;;;;;6.00;4.25;;;7.80;99.90;;;;;;5006910;28;20076;-91
2022/12/05 12:09:01;;;;;;;8.27;4.47;;;7.90;99.90;;;;;;5010061;28;20034;-90
2022/12/05 12:11:42;;;;;;;5.40;4.32;;;8.20;99.90;;;;;;4996269;28;20043;-90
2022/12/05 12:14:36;;;;;;;5.65;4.00;;;8.40;99.90;;;;;;4997492;28;20393;-90
2022/12/05 12:17:22;;;;;;;5.28;3.60;;;8.50;99.90;;;;;;4994068;28;20038;-91
2022/12/05 12:20:06;;;;;;;4.90;3.58;;;8.40;99.90;;;;;;4992154;28;20034;-90
2022/12/05 12:22:37;;;;;;;5.82;3.92;;;8.60;99.90;;;;;;5009895;28;20034;-91
2022/12/05 12:25:24;;;;;;;5.30;3.90;;;8.60;99.90;;;;;;4993945;28;20065;-91
2022/12/05 12:27:53;;;;;;;5.40;3.40;;;8.80;99.90;;;;;;5030831;28;20132;-90
2022/12/05 12:30:23;;;;;;;5.13;4.15;;;8.90;99.90;;;;;;5001276;28;20050;-90
2022/12/05 12:33:02;;;;;;;5.47;3.38;;;8.90;99.90;;;;;;5005699;28;20038;-91
2022/12/05 12:35:44;;;;;;;7.00;3.55;;;8.80;99.90;;;;;;4993227;28;20033;-91
2022/12/05 12:38:35;;;;;;;;;;;9.00;99.90;;;;;;5051541;28;20072;-91
2022/12/05 12:41:16;;;;;;;5.65;3.65;;;8.70;99.90;;;;;;5054391;28;19985;-92
2022/12/05 12:44:00;;;;;;;5.93;3.60;;;8.90;99.90;;;;;;5051645;28;20025;-92
2022/12/05 12:46:32;;;;;;;5.78;4.05;;;8.60;99.90;;;;;;5052437;28;20060;-91
2022/12/05 12:49:22;;;;;;;5.03;3.58;;;8.80;99.90;;;;;;5047253;28;20095;-90
2022/12/05 12:51:52;;;;;;;6.00;3.97;;;8.80;99.90;;;;;;5050752;28;20090;-92
2022/12/05 12:54:57;;;;;;;5.05;4.22;;;9.00;99.90;;;;;;5051820;28;20032;-92
2022/12/05 12:57:41;;;;;;;8.15;4.28;;;8.80;99.90;;;;;;5028467;28;20034;-91
2022/12/05 13:00:36;;;;;;;6.57;4.47;;;8.70;99.90;;;;;;5027481;28;20454;-91
2022/12/05 13:03:21;;;;;;;5.63;4.68;;;8.60;99.90;;;;;;5044314;28;20040;-91
2022/12/05 13:05:59;;;;;;;7.75;4.53;;;8.80;99.90;;;;;;5029188;28;20141;-91
2022/12/05 13:09:06;;;;;;;6.95;4.88;;;8.80;99.90;;;;;;5030558;28;20124;-91